Time;durP1;ratioP1;P1;durP2;ratioP2;P2;SDS_P1;SDS_P2;PMS_P1;PMS_P2;Temp;Humidity;BMP_temperature;BMP_pressure;BME280_temperature;BME280_humidity;BME280_pressure;Samples;Min_cycle;Max_cycle;Signal;HPM_P1;HPM_P2
2022/03/12 00:00:10;;;;;;;18.55;9.57;;;;;;;;;;4993073;28;20427;-82
2022/03/12 00:02:36;;;;;;;18.15;8.93;;;;;;;;;;5009508;28;20393;-85
2022/03/12 00:05:07;;;;;;;16.42;9.68;;;;;;;;;;5005153;28;20037;-81
2022/03/12 00:07:34;;;;;;;17.88;8.88;;;;;;;;;;5006888;28;20038;-81
2022/03/12 00:10:00;;;;;;;17.40;9.82;;;;;;;;;;4991587;28;20485;-82
2022/03/12 00:12:32;;;;;;;17.10;8.88;;;;;;;;;;4995167;28;20042;-81
2022/03/12 00:14:57;;;;;;;18.88;9.48;;;;;;;;;;4994947;28;20041;-82
2022/03/12 00:17:25;;;;;;;17.67;9.32;;;;;;;;;;4992322;28;20124;-80
2022/03/12 00:19:50;;;;;;;;;;;;;;;;;;4995256;28;20481;-81
2022/03/12 00:22:16;;;;;;;16.20;8.83;;;;;;;;;;4990862;28;19932;-84
2022/03/12 00:24:42;;;;;;;18.00;9.02;;;;;;;;;;4994202;28;20041;-83
2022/03/12 00:27:09;;;;;;;17.48;9.25;;;;;;;;;;4992582;28;20415;-84
2022/03/12 00:29:35;;;;;;;20.30;10.48;;;;;;;;;;4993447;28;20041;-82
2022/03/12 00:32:00;;;;;;;24.45;9.85;;;;;;;;;;5007704;28;20038;-82
2022/03/12 00:34:26;;;;;;;20.75;9.70;;;;;;;;;;4990779;28;20493;-81
2022/03/12 00:36:51;;;;;;;18.00;8.85;;;;;;;;;;4990970;28;20505;-82
2022/03/12 00:39:18;;;;;;;21.13;9.75;;;;;;;;;;4996990;28;20072;-82
2022/03/12 00:41:43;;;;;;;18.83;9.73;;;;;;;;;;4993330;28;20029;-82
2022/03/12 00:44:11;;;;;;;19.05;9.73;;;;;;;;;;4998974;28;20109;-83
2022/03/12 00:46:37;;;;;;;18.92;9.77;;;;;;;;;;5001667;28;20416;-83
2022/03/12 00:49:02;;;;;;;19.58;9.57;;;;;;;;;;5013372;28;20037;-82
2022/03/12 00:51:28;;;;;;;20.85;9.60;;;;;;;;;;4994761;28;20033;-83
2022/03/12 00:53:53;;;;;;;18.27;9.75;;;;;;;;;;4998258;28;20049;-81
2022/03/12 00:56:19;;;;;;;21.63;10.43;;;;;;;;;;4996097;28;20104;-82
2022/03/12 00:58:46;;;;;;;19.92;9.93;;;;;;;;;;5000035;28;20511;-81
2022/03/12 01:01:12;;;;;;;;;;;;;;;;;;4995360;28;20030;-81
2022/03/12 01:03:38;;;;;;;16.63;9.25;;;;;;;;;;4997668;28;20492;-82
2022/03/12 01:06:04;;;;;;;19.42;10.05;;;;;;;;;;4997909;28;20121;-81
2022/03/12 01:08:31;;;;;;;19.65;10.00;;;;;;;;;;4994554;28;20037;-82
2022/03/12 01:10:59;;;;;;;18.88;10.25;;;;;;;;;;4996097;28;20033;-81
2022/03/12 01:13:25;;;;;;;19.58;10.20;;;;;;;;;;5014635;28;20042;-82
2022/03/12 01:15:51;;;;;;;19.92;9.88;;;;;;;;;;4993934;28;20037;-81
2022/03/12 01:18:19;;;;;;;21.92;10.07;;;;;;;;;;5000271;28;20397;-81
2022/03/12 01:20:45;;;;;;;19.77;9.88;;;;;;;;;;4992653;28;20089;-82
2022/03/12 01:23:13;;;;;;;18.98;10.40;;;;;;;;;;4997393;28;20064;-82
2022/03/12 01:25:40;;;;;;;18.52;9.60;;;;;;;;;;4995813;28;20685;-82
2022/03/12 01:28:08;;;;;;;20.60;10.13;;;;;;;;;;4995850;28;20060;-82
2022/03/12 01:30:34;;;;;;;19.33;9.52;;;;;;;;;;5003969;28;20087;-82
2022/03/12 01:32:59;;;;;;;18.48;9.75;;;;;;;;;;4995018;28;20038;-82
2022/03/12 01:35:25;;;;;;;19.20;9.98;;;;;;;;;;5010253;28;20049;-81
2022/03/12 01:37:50;;;;;;;20.38;10.07;;;;;;;;;;4995462;28;20176;-82
2022/03/12 01:40:16;;;;;;;19.48;10.13;;;;;;;;;;4983526;28;20065;-82
2022/03/12 01:42:43;;;;;;;23.50;10.88;;;;;;;;;;4994813;28;20038;-82
2022/03/12 01:45:13;;;;;;;20.17;10.07;;;;;;;;;;4985593;28;20057;-82
2022/03/12 01:47:40;;;;;;;19.25;10.00;;;;;;;;;;4999940;28;20045;-82
2022/03/12 01:50:06;;;;;;;20.25;10.27;;;;;;;;;;4983398;28;20546;-82
2022/03/12 01:52:31;;;;;;;18.42;9.95;;;;;;;;;;4994239;28;20125;-81
2022/03/12 01:54:57;;;;;;;20.67;9.90;;;;;;;;;;5000035;28;20172;-82
2022/03/12 01:57:22;;;;;;;24.02;11.02;;;;;;;;;;4992750;28;20033;-82
2022/03/12 01:59:48;;;;;;;20.02;9.88;;;;;;;;;;4992195;28;20041;-83
2022/03/12 02:02:15;;;;;;;19.40;10.55;;;;;;;;;;4989379;28;20037;-82
2022/03/12 02:04:56;;;;;;;21.52;10.30;;;;;;;;;;5000829;28;20427;-82
2022/03/12 02:07:22;;;;;;;21.60;10.50;;;;;;;;;;4989546;28;20494;-81
2022/03/12 02:09:49;;;;;;;20.92;10.48;;;;;;;;;;4983728;28;20029;-81
2022/03/12 02:12:14;;;;;;;20.80;10.73;;;;;;;;;;5008428;28;20552;-81
2022/03/12 02:14:40;;;;;;;20.73;10.40;;;;;;;;;;4999847;28;20126;-81
2022/03/12 02:17:09;;;;;;;19.63;10.30;;;;;;;;;;4993548;28;20030;-83
2022/03/12 02:19:35;;;;;;;20.55;10.68;;;;;;;;;;5014297;28;20042;-81
2022/03/12 02:22:00;;;;;;;16.95;9.90;;;;;;;;;;4994454;28;20038;-82
2022/03/12 02:24:27;;;;;;;21.38;9.93;;;;;;;;;;5012142;28;20547;-82
2022/03/12 02:26:54;;;;;;;17.25;9.57;;;;;;;;;;4981968;28;20033;-83
2022/03/12 02:29:22;;;;;;;21.00;11.05;;;;;;;;;;4993949;28;20044;-82
2022/03/12 02:31:49;;;;;;;20.85;10.40;;;;;;;;;;4991809;28;20029;-82
2022/03/12 02:34:22;;;;;;;;;;;;;;;;;;4994536;28;20034;-83
2022/03/12 02:36:52;;;;;;;20.42;10.10;;;;;;;;;;4992747;28;19917;-83
2022/03/12 02:39:19;;;;;;;21.30;9.98;;;;;;;;;;5007723;28;20484;-83
2022/03/12 02:41:45;;;;;;;23.77;10.07;;;;;;;;;;5009350;28;20026;-83
2022/03/12 02:44:17;;;;;;;19.58;10.15;;;;;;;;;;4994948;28;20508;-82
2022/03/12 02:46:43;;;;;;;20.85;10.77;;;;;;;;;;4992728;28;20076;-83
2022/03/12 02:49:08;;;;;;;22.42;10.93;;;;;;;;;;5010525;28;20091;-83
2022/03/12 02:51:34;;;;;;;23.42;10.77;;;;;;;;;;4990756;28;20037;-82
2022/03/12 02:54:00;;;;;;;18.52;9.98;;;;;;;;;;4992595;28;20040;-83
2022/03/12 02:56:26;;;;;;;22.50;10.88;;;;;;;;;;4991731;28;20712;-84
2022/03/12 02:58:52;;;;;;;20.75;10.52;;;;;;;;;;4991037;28;20057;-84
2022/03/12 03:01:18;;;;;;;21.40;11.25;;;;;;;;;;4990626;28;20515;-83
2022/03/12 03:03:45;;;;;;;20.13;10.43;;;;;;;;;;4994005;28;20034;-83
2022/03/12 03:06:13;;;;;;;21.00;10.40;;;;;;;;;;4980905;28;20044;-83
2022/03/12 03:08:39;;;;;;;19.58;10.38;;;;;;;;;;5011239;28;20273;-83
2022/03/12 03:11:10;;;;;;;21.63;10.70;;;;;;;;;;4991785;28;20042;-83
2022/03/12 03:13:37;;;;;;;22.45;10.82;;;;;;;;;;5008493;28;20100;-83
2022/03/12 03:16:04;;;;;;;22.55;10.73;;;;;;;;;;4990970;28;20552;-84
2022/03/12 03:18:31;;;;;;;24.88;10.60;;;;;;;;;;4987455;28;20053;-83
2022/03/12 03:20:58;;;;;;;22.40;10.40;;;;;;;;;;4992396;28;20592;-84
2022/03/12 03:23:25;;;;;;;23.40;11.13;;;;;;;;;;5009130;28;20120;-84
2022/03/12 03:25:50;;;;;;;18.85;10.02;;;;;;;;;;4990918;28;20096;-84
2022/03/12 03:28:16;;;;;;;21.23;10.23;;;;;;;;;;4993074;28;20050;-83
2022/03/12 03:30:41;;;;;;;25.17;11.25;;;;;;;;;;4991193;28;20133;-83
2022/03/12 03:33:09;;;;;;;20.88;10.93;;;;;;;;;;4996249;28;20057;-84
2022/03/12 03:35:36;;;;;;;19.98;10.82;;;;;;;;;;4997953;28;20065;-83
2022/03/12 03:38:01;;;;;;;21.25;10.40;;;;;;;;;;4982043;28;20049;-83
2022/03/12 03:40:27;;;;;;;23.50;11.02;;;;;;;;;;5007170;28;20033;-83
2022/03/12 03:42:53;;;;;;;20.02;9.75;;;;;;;;;;5005692;28;20120;-83
2022/03/12 03:45:24;;;;;;;21.75;10.95;;;;;;;;;;4991612;28;20436;-82
2022/03/12 03:47:50;;;;;;;21.42;10.18;;;;;;;;;;4980694;28;20536;-83
2022/03/12 03:50:16;;;;;;;19.75;10.75;;;;;;;;;;4992737;28;20373;-83
2022/03/12 03:52:42;;;;;;;21.15;10.40;;;;;;;;;;4992893;28;20041;-83
2022/03/12 03:55:07;;;;;;;21.92;10.75;;;;;;;;;;4993271;28;20120;-83
2022/03/12 03:57:32;;;;;;;22.02;10.80;;;;;;;;;;4991375;28;20038;-83
2022/03/12 03:59:58;;;;;;;18.77;10.63;;;;;;;;;;4990871;28;20040;-83
2022/03/12 04:02:23;;;;;;;20.02;10.68;;;;;;;;;;5005574;28;20133;-83
2022/03/12 04:04:52;;;;;;;23.52;11.63;;;;;;;;;;5009125;28;20049;-83
2022/03/12 04:07:17;;;;;;;23.80;11.05;;;;;;;;;;4989760;28;20046;-84
2022/03/12 04:09:42;;;;;;;23.80;10.95;;;;;;;;;;5006306;28;20042;-83
2022/03/12 04:12:08;;;;;;;20.77;11.02;;;;;;;;;;5008616;28;20050;-82
2022/03/12 04:14:33;;;;;;;21.55;10.85;;;;;;;;;;4992508;28;20038;-83
2022/03/12 04:16:59;;;;;;;19.75;10.80;;;;;;;;;;5006667;28;20038;-83
2022/03/12 04:19:29;;;;;;;21.38;10.50;;;;;;;;;;4995122;28;20409;-83
2022/03/12 04:21:56;;;;;;;20.88;10.65;;;;;;;;;;4998096;28;20060;-82
2022/03/12 04:24:23;;;;;;;22.98;10.63;;;;;;;;;;4996933;28;20045;-83
2022/03/12 04:26:50;;;;;;;19.10;10.00;;;;;;;;;;5008332;28;20378;-83
2022/03/12 04:29:15;;;;;;;22.17;11.35;;;;;;;;;;4994654;28;20053;-83
2022/03/12 04:31:41;;;;;;;21.63;10.55;;;;;;;;;;4993524;28;20041;-81
2022/03/12 04:34:06;;;;;;;21.73;10.65;;;;;;;;;;4996159;28;20128;-82
2022/03/12 04:36:34;;;;;;;21.65;11.32;;;;;;;;;;4993691;28;20042;-81
2022/03/12 04:38:59;;;;;;;21.17;10.27;;;;;;;;;;4996206;28;20106;-84
2022/03/12 04:41:30;;;;;;;20.92;10.02;;;;;;;;;;4997086;28;20038;-82
2022/03/12 04:43:56;;;;;;;20.58;10.93;;;;;;;;;;5000233;28;20092;-82
2022/03/12 04:46:21;;;;;;;22.75;10.60;;;;;;;;;;5008191;28;20531;-83
2022/03/12 04:48:46;;;;;;;21.25;10.35;;;;;;;;;;5014178;28;20042;-83
2022/03/12 04:51:12;;;;;;;19.83;10.48;;;;;;;;;;4993017;28;20133;-82
2022/03/12 04:53:38;;;;;;;25.50;10.32;;;;;;;;;;5010091;28;20116;-83
2022/03/12 04:56:04;;;;;;;22.48;10.80;;;;;;;;;;4995214;28;20076;-83
2022/03/12 04:58:29;;;;;;;22.02;10.40;;;;;;;;;;4995479;28;20042;-83
2022/03/12 05:00:55;;;;;;;21.80;10.45;;;;;;;;;;4994375;28;20084;-83
2022/03/12 05:03:22;;;;;;;21.17;11.35;;;;;;;;;;4994829;28;20056;-83
2022/03/12 05:05:50;;;;;;;24.05;11.07;;;;;;;;;;4996999;28;20111;-83
2022/03/12 05:08:17;;;;;;;21.63;10.60;;;;;;;;;;4993194;28;20112;-82
2022/03/12 05:10:49;;;;;;;23.45;11.50;;;;;;;;;;5013035;28;20129;-81
2022/03/12 05:13:27;;;;;;;22.05;11.20;;;;;;;;;;5010901;28;20064;-82
2022/03/12 05:15:59;;;;;;;22.17;10.50;;;;;;;;;;4996276;28;20501;-84
2022/03/12 05:18:25;;;;;;;49.05;24.50;;;;;;;;;;4993148;28;20037;-82
2022/03/12 05:20:51;;;;;;;24.80;11.43;;;;;;;;;;4994208;28;20095;-84
2022/03/12 05:23:18;;;;;;;24.05;10.93;;;;;;;;;;4985714;28;20042;-84
2022/03/12 05:25:45;;;;;;;21.43;11.43;;;;;;;;;;4989458;28;20575;-83
2022/03/12 05:28:15;;;;;;;24.20;12.77;;;;;;;;;;4996427;28;20052;-83
2022/03/12 05:30:43;;;;;;;21.38;11.20;;;;;;;;;;4985075;28;20496;-83
2022/03/12 05:33:09;;;;;;;23.15;11.05;;;;;;;;;;5011485;28;20034;-84
2022/03/12 05:35:39;;;;;;;21.67;11.40;;;;;;;;;;4994206;28;20041;-84
2022/03/12 05:38:05;;;;;;;22.98;11.02;;;;;;;;;;4991947;28;20057;-83
2022/03/12 05:40:31;;;;;;;22.75;11.65;;;;;;;;;;4989741;28;20619;-83
2022/03/12 05:42:58;;;;;;;22.40;11.02;;;;;;;;;;4991502;28;20046;-83
2022/03/12 05:45:23;;;;;;;21.30;11.05;;;;;;;;;;4993542;28;20049;-83
2022/03/12 05:47:50;;;;;;;26.48;13.07;;;;;;;;;;4992992;28;20409;-82
2022/03/12 05:50:16;;;;;;;23.13;12.10;;;;;;;;;;4993611;28;20053;-83
2022/03/12 05:52:48;;;;;;;22.45;11.60;;;;;;;;;;4992098;28;20041;-82
2022/03/12 05:55:15;;;;;;;22.70;10.35;;;;;;;;;;5006310;28;20520;-82
2022/03/12 05:57:42;;;;;;;20.83;11.27;;;;;;;;;;4992851;28;20458;-83
2022/03/12 06:00:10;;;;;;;20.63;11.15;;;;;;;;;;4998169;28;20053;-84
2022/03/12 06:02:36;;;;;;;20.25;10.80;;;;;;;;;;4982188;28;20092;-83
2022/03/12 06:05:02;;;;;;;21.63;11.30;;;;;;;;;;4992995;28;20038;-83
2022/03/12 06:07:27;;;;;;;24.30;11.70;;;;;;;;;;4995534;28;20041;-84
2022/03/12 06:09:55;;;;;;;22.40;10.98;;;;;;;;;;4999997;28;20034;-84
2022/03/12 06:12:21;;;;;;;21.92;11.15;;;;;;;;;;5008804;28;20413;-83
2022/03/12 06:14:52;;;;;;;22.63;10.90;;;;;;;;;;5011678;28;20091;-83
2022/03/12 06:17:19;;;;;;;22.92;10.85;;;;;;;;;;4989699;28;20601;-83
2022/03/12 06:19:45;;;;;;;23.65;10.65;;;;;;;;;;5010672;28;20081;-83
2022/03/12 06:22:10;;;;;;;23.02;10.88;;;;;;;;;;4993908;28;20155;-84
2022/03/12 06:24:36;;;;;;;22.42;11.63;;;;;;;;;;4994146;28;20033;-83
2022/03/12 06:27:01;;;;;;;22.00;11.57;;;;;;;;;;4993703;28;20088;-83
2022/03/12 06:29:26;;;;;;;22.77;11.43;;;;;;;;;;4994131;28;20477;-83
2022/03/12 06:31:52;;;;;;;19.63;10.45;;;;;;;;;;4988943;28;20489;-82
2022/03/12 06:34:17;;;;;;;20.92;11.10;;;;;;;;;;4997196;28;20046;-84
2022/03/12 06:36:44;;;;;;;22.92;11.07;;;;;;;;;;4991701;28;20117;-82
2022/03/12 06:39:09;;;;;;;25.23;11.30;;;;;;;;;;4993741;28;20046;-82
2022/03/12 06:41:41;;;;;;;24.85;11.40;;;;;;;;;;5005026;28;20042;-83
2022/03/12 06:44:07;;;;;;;21.30;11.63;;;;;;;;;;5007911;28;20041;-84
2022/03/12 06:46:35;;;;;;;23.25;11.75;;;;;;;;;;4991829;28;20034;-84
2022/03/12 06:49:00;;;;;;;22.77;11.60;;;;;;;;;;4992891;28;20049;-83
2022/03/12 06:51:26;;;;;;;24.42;11.35;;;;;;;;;;4992799;28;20034;-83
2022/03/12 06:53:52;;;;;;;21.38;11.15;;;;;;;;;;4991658;28;20046;-83
2022/03/12 06:56:18;;;;;;;24.52;11.38;;;;;;;;;;4991675;28;20052;-82
2022/03/12 06:58:44;;;;;;;21.58;11.15;;;;;;;;;;4994160;28;20038;-82
2022/03/12 07:01:09;;;;;;;21.58;10.68;;;;;;;;;;4992141;28;20038;-83
2022/03/12 07:03:34;;;;;;;21.45;11.27;;;;;;;;;;4992069;28;20829;-82
2022/03/12 07:06:00;;;;;;;22.88;12.20;;;;;;;;;;4991069;28;20084;-85
2022/03/12 07:08:25;;;;;;;23.20;11.27;;;;;;;;;;4991971;28;20069;-83
2022/03/12 07:10:51;;;;;;;24.05;11.25;;;;;;;;;;5005384;28;20148;-83
2022/03/12 07:13:16;;;;;;;21.23;10.98;;;;;;;;;;5006357;28;20072;-83
2022/03/12 07:15:42;;;;;;;21.67;11.10;;;;;;;;;;4996625;28;20042;-82
2022/03/12 07:18:08;;;;;;;25.35;11.07;;;;;;;;;;4993857;28;20038;-84
2022/03/12 07:20:33;;;;;;;22.15;10.93;;;;;;;;;;5008913;28;20042;-83
2022/03/12 07:23:00;;;;;;;20.08;10.13;;;;;;;;;;4996162;28;20486;-84
2022/03/12 07:25:27;;;;;;;22.57;10.90;;;;;;;;;;5008355;28;20034;-84
2022/03/12 07:27:54;;;;;;;19.48;10.50;;;;;;;;;;5007415;28;20044;-83
2022/03/12 07:30:21;;;;;;;21.38;10.68;;;;;;;;;;5008802;28;20061;-84
2022/03/12 07:32:48;;;;;;;19.85;10.95;;;;;;;;;;4992965;28;20033;-82
2022/03/12 07:35:15;;;;;;;22.20;10.47;;;;;;;;;;4990749;28;20037;-83
2022/03/12 07:37:41;;;;;;;18.30;9.95;;;;;;;;;;4979956;28;20111;-83
2022/03/12 07:40:07;;;;;;;21.85;10.82;;;;;;;;;;4989536;28;20037;-83
2022/03/12 07:42:33;;;;;;;20.30;10.10;;;;;;;;;;5006432;28;20413;-83
2022/03/12 07:44:58;;;;;;;20.23;10.27;;;;;;;;;;4992710;28;20401;-83
2022/03/12 07:47:24;;;;;;;20.08;9.68;;;;;;;;;;4989160;28;20068;-82
2022/03/12 07:49:50;;;;;;;18.63;9.65;;;;;;;;;;4990063;28;20950;-82
2022/03/12 07:52:15;;;;;;;18.33;10.18;;;;;;;;;;4996017;28;20033;-81
2022/03/12 07:54:41;;;;;;;17.98;9.52;;;;;;;;;;5006243;28;20044;-82
2022/03/12 07:57:06;;;;;;;17.65;9.40;;;;;;;;;;4992313;28;20052;-82
2022/03/12 07:59:32;;;;;;;23.27;10.40;;;;;;;;;;4993056;28;20045;-82
2022/03/12 08:01:58;;;;;;;18.58;9.43;;;;;;;;;;4989948;28;20125;-80
2022/03/12 08:04:24;;;;;;;15.15;8.38;;;;;;;;;;5005971;28;20084;-83
2022/03/12 08:06:50;;;;;;;18.13;9.68;;;;;;;;;;4989506;28;20030;-83
2022/03/12 08:09:15;;;;;;;17.35;9.90;;;;;;;;;;5006494;28;20137;-83
2022/03/12 08:11:41;;;;;;;16.85;9.63;;;;;;;;;;4990394;28;20042;-84
2022/03/12 08:14:08;;;;;;;15.70;9.13;;;;;;;;;;4999648;28;20049;-83
2022/03/12 08:16:35;;;;;;;16.90;9.18;;;;;;;;;;4991876;28;20034;-82
2022/03/12 08:19:02;;;;;;;15.82;8.52;;;;;;;;;;4979132;28;20089;-83
2022/03/12 08:21:27;;;;;;;16.58;8.80;;;;;;;;;;4991353;28;20038;-83
2022/03/12 08:23:52;;;;;;;19.30;8.77;;;;;;;;;;5006229;28;20084;-83
2022/03/12 08:26:18;;;;;;;17.90;8.80;;;;;;;;;;4989575;28;20038;-85
2022/03/12 08:28:44;;;;;;;15.35;7.85;;;;;;;;;;4992966;28;20046;-84
2022/03/12 08:31:09;;;;;;;15.40;8.50;;;;;;;;;;4993071;28;20489;-84
2022/03/12 08:33:37;;;;;;;16.33;8.88;;;;;;;;;;4992213;28;20128;-85
2022/03/12 08:36:04;;;;;;;17.40;9.50;;;;;;;;;;4991684;28;20515;-90
2022/03/12 08:38:34;;;;;;;14.57;8.32;;;;;;;;;;5007786;28;20666;-89
2022/03/12 08:41:02;;;;;;;15.73;8.25;;;;;;;;;;4977441;28;20036;-85
2022/03/12 08:43:28;;;;;;;12.85;7.60;;;;;;;;;;4992828;28;20482;-86
2022/03/12 08:45:54;;;;;;;15.38;8.10;;;;;;;;;;5007137;28;20029;-83
2022/03/12 08:48:19;;;;;;;12.40;7.97;;;;;;;;;;5006644;28;20048;-82
2022/03/12 08:50:45;;;;;;;16.10;7.90;;;;;;;;;;5007790;28;20484;-83
2022/03/12 08:53:11;;;;;;;18.17;8.35;;;;;;;;;;4995241;28;20037;-84
2022/03/12 08:55:37;;;;;;;13.80;7.32;;;;;;;;;;4990976;28;20042;-84
2022/03/12 08:58:03;;;;;;;14.32;8.00;;;;;;;;;;4991176;28;20151;-82
2022/03/12 09:00:28;;;;;;;11.98;7.40;;;;;;;;;;5008736;28;20092;-84
2022/03/12 09:02:54;;;;;;;13.93;8.27;;;;;;;;;;4995459;28;20046;-83
2022/03/12 09:05:19;;;;;;;14.40;7.60;;;;;;;;;;4984359;28;20046;-83
2022/03/12 09:07:45;;;;;;;13.25;7.88;;;;;;;;;;4994592;28;20640;-83
2022/03/12 09:10:12;;;;;;;14.65;7.75;;;;;;;;;;5009873;28;20049;-82
2022/03/12 09:12:41;;;;;;;13.05;7.60;;;;;;;;;;5010723;28;20036;-83
2022/03/12 09:15:07;;;;;;;13.05;7.10;;;;;;;;;;4994579;28;20108;-83
2022/03/12 09:17:36;;;;;;;15.73;7.70;;;;;;;;;;4995670;28;20064;-83
2022/03/12 09:20:03;;;;;;;11.98;7.55;;;;;;;;;;4995664;28;21143;-83
2022/03/12 09:22:29;;;;;;;12.15;6.95;;;;;;;;;;4992348;28;20104;-84
2022/03/12 09:24:54;;;;;;;14.23;7.63;;;;;;;;;;4994831;28;20038;-81
2022/03/12 09:27:19;;;;;;;11.35;7.60;;;;;;;;;;4998445;28;20038;-82
2022/03/12 09:29:45;;;;;;;10.95;7.28;;;;;;;;;;4994757;28;20774;-82
2022/03/12 09:32:10;;;;;;;16.90;7.85;;;;;;;;;;4992975;28;20041;-83
2022/03/12 09:34:37;;;;;;;14.35;7.28;;;;;;;;;;4984172;28;20062;-83
2022/03/12 09:37:03;;;;;;;13.73;7.40;;;;;;;;;;5010612;28;20088;-83
2022/03/12 09:39:28;;;;;;;12.27;7.00;;;;;;;;;;4993611;28;20278;-83
2022/03/12 09:41:54;;;;;;;13.70;7.40;;;;;;;;;;4994381;28;20037;-82
2022/03/12 09:44:19;;;;;;;11.60;6.60;;;;;;;;;;4994921;28;20041;-82
2022/03/12 09:46:45;;;;;;;12.32;6.82;;;;;;;;;;4980421;28;20927;-82
2022/03/12 09:49:11;;;;;;;12.45;7.10;;;;;;;;;;4999930;28;20034;-82
2022/03/12 09:51:37;;;;;;;11.13;6.95;;;;;;;;;;4993511;28;20038;-82
2022/03/12 09:54:03;;;;;;;12.25;7.10;;;;;;;;;;5009488;28;20029;-82
2022/03/12 09:56:29;;;;;;;13.43;7.45;;;;;;;;;;5008931;28;20041;-82
2022/03/12 09:58:54;;;;;;;11.70;7.15;;;;;;;;;;4998205;28;20038;-81
2022/03/12 10:01:20;;;;;;;12.80;7.60;;;;;;;;;;5004598;28;20083;-82
2022/03/12 10:03:45;;;;;;;14.60;7.68;;;;;;;;;;4994005;28;20114;-83
2022/03/12 10:06:10;;;;;;;12.25;7.15;;;;;;;;;;4994471;28;20076;-81
2022/03/12 10:08:36;;;;;;;13.10;7.00;;;;;;;;;;5011759;28;20042;-87
2022/03/12 10:11:04;;;;;;;11.30;6.90;;;;;;;;;;5011915;28;20551;-82
2022/03/12 10:13:30;;;;;;;9.63;6.15;;;;;;;;;;4994077;28;20048;-81
2022/03/12 10:15:55;;;;;;;14.45;7.40;;;;;;;;;;4993658;28;20638;-81
2022/03/12 10:18:22;;;;;;;11.13;6.35;;;;;;;;;;5010177;28;20033;-82
2022/03/12 10:20:48;;;;;;;12.60;6.55;;;;;;;;;;4997373;28;20382;-82
2022/03/12 10:23:13;;;;;;;13.73;6.53;;;;;;;;;;4994797;28;20041;-81
2022/03/12 10:25:39;;;;;;;12.05;6.63;;;;;;;;;;4994912;28;20081;-82
2022/03/12 10:28:04;;;;;;;13.30;6.15;;;;;;;;;;4992373;28;20427;-81
2022/03/12 10:30:30;;;;;;;10.68;5.78;;;;;;;;;;4998165;28;20036;-81
2022/03/12 10:32:55;;;;;;;9.70;5.53;;;;;;;;;;4993231;28;20034;-81
2022/03/12 10:35:22;;;;;;;13.77;5.50;;;;;;;;;;4993349;28;20037;-81
2022/03/12 10:37:49;;;;;;;9.88;5.35;;;;;;;;;;5008866;28;20436;-82
2022/03/12 10:40:16;;;;;;;10.60;5.35;;;;;;;;;;4983917;28;20068;-80
2022/03/12 10:42:57;;;;;;;11.85;5.13;;;;;;;;;;5011525;28;20546;-81
2022/03/12 10:45:27;;;;;;;10.23;5.32;;;;;;;;;;4990833;28;20135;-82
2022/03/12 10:47:54;;;;;;;8.60;4.82;;;;;;;;;;4979320;28;20127;-81
2022/03/12 10:50:30;;;;;;;8.75;5.20;;;;;;;;;;5011208;28;20065;-83
2022/03/12 10:52:58;;;;;;;8.93;4.57;;;;;;;;;;4980593;28;20064;-82
2022/03/12 10:55:27;;;;;;;8.10;4.90;;;;;;;;;;4989311;28;20040;-82
2022/03/12 10:57:56;;;;;;;8.20;4.68;;;;;;;;;;5006603;28;20036;-82
2022/03/12 11:00:23;;;;;;;9.88;4.93;;;;;;;;;;5008421;28;20484;-82
2022/03/12 11:03:00;;;;;;;7.80;4.70;;;;;;;;;;4991227;28;20088;-82
2022/03/12 11:05:30;;;;;;;8.93;4.78;;;;;;;;;;5009029;28;20084;-80
2022/03/12 11:08:16;;;;;;;7.38;4.70;;;;;;;;;;4999621;28;20049;-81
2022/03/12 11:10:59;;;;;;;8.35;4.70;;;;;;;;;;5023882;28;20432;-82
2022/03/12 11:13:39;;;;;;;8.80;5.25;;;;;;;;;;5007792;28;20527;-81
2022/03/12 11:16:15;;;;;;;10.68;5.40;;;;;;;;;;5007024;28;20051;-82
2022/03/12 11:18:52;;;;;;;8.32;5.57;;;;;;;;;;5000623;28;20397;-84
2022/03/12 11:21:43;;;;;;;11.80;7.50;;;;;;;;;;4998762;28;20161;-81
2022/03/12 11:24:17;;;;;;;12.93;7.88;;;;;;;;;;4984751;28;20045;-83
2022/03/12 11:27:00;;;;;;;12.93;8.65;;;;;;;;;;4993837;28;20522;-81
2022/03/12 11:29:29;;;;;;;12.75;8.25;;;;;;;;;;4986061;28;20045;-82
2022/03/12 11:31:58;;;;;;;13.00;7.32;;;;;;;;;;4990178;28;20033;-84
2022/03/12 11:34:35;;;;;;;9.75;5.70;;;;;;;;;;5007744;28;20042;-85
2022/03/12 11:37:23;;;;;;;8.45;5.50;;;;;;;;;;5006342;28;20038;-85
2022/03/12 11:39:52;;;;;;;;;;;;;;;;;;4915566;29;20051;-80
2022/03/12 11:42:30;;;;;;;9.98;6.40;;;;;;;;;;4912562;29;19918;-81
2022/03/12 11:44:57;;;;;;;12.07;6.10;;;;;;;;;;4904080;29;20634;-80
2022/03/12 11:47:34;;;;;;;7.10;4.80;;;;;;;;;;4907574;29;20040;-83
2022/03/12 11:50:01;;;;;;;7.32;4.63;;;;;;;;;;4919590;28;20504;-80
2022/03/12 11:52:27;;;;;;;10.75;5.43;;;;;;;;;;4907394;29;20036;-80
2022/03/12 11:54:57;;;;;;;8.40;5.10;;;;;;;;;;4896312;29;20658;-80
2022/03/12 11:57:27;;;;;;;9.57;4.68;;;;;;;;;;4916641;29;20486;-79
2022/03/12 11:59:53;;;;;;;12.25;4.88;;;;;;;;;;4910456;29;20035;-83
2022/03/12 12:02:22;;;;;;;8.02;4.60;;;;;;;;;;4915242;29;20043;-93
2022/03/12 12:04:51;;;;;;;6.75;4.60;;;;;;;;;;4930001;29;20343;-81
2022/03/12 12:07:16;;;;;;;8.38;4.45;;;;;;;;;;4899228;29;20309;-84
2022/03/12 12:09:42;;;;;;;13.82;6.40;;;;;;;;;;4918203;29;20709;-89
2022/03/12 12:12:12;;;;;;;8.93;4.55;;;;;;;;;;4912827;29;20039;-82
2022/03/12 12:14:39;;;;;;;8.10;4.22;;;;;;;;;;4900343;29;20214;-85
2022/03/12 12:17:04;;;;;;;8.65;4.43;;;;;;;;;;4960504;28;20030;-83
2022/03/12 12:19:35;;;;;;;9.55;4.15;;;;;;;;;;4995419;28;20045;-84
2022/03/12 12:22:03;;;;;;;8.60;4.40;;;;;;;;;;5000111;28;20528;-85
2022/03/12 12:24:29;;;;;;;;;;;;;;;;;;4994253;28;20500;-85
2022/03/12 12:27:06;;;;;;;11.40;4.70;;;;;;;;;;5011603;28;19956;-87
2022/03/12 12:29:40;;;;;;;;;;;;;;;;;;4990319;28;20923;-84
2022/03/12 12:32:10;;;;;;;9.02;4.70;;;;;;;;;;4992188;28;19917;-86
2022/03/12 12:35:04;;;;;;;9.57;4.60;;;;;;;;;;5001576;28;20103;-88
2022/03/12 12:37:41;;;;;;;7.13;4.20;;;;;;;;;;5019106;28;20037;-87
2022/03/12 12:40:23;;;;;;;8.65;4.38;;;;;;;;;;5011717;28;20443;-84
2022/03/12 12:42:51;;;;;;;10.13;4.68;;;;;;;;;;5002355;28;20392;-89
2022/03/12 12:45:22;;;;;;;8.75;4.20;;;;;;;;;;4997250;28;20045;-84
2022/03/12 12:47:57;;;;;;;8.20;4.97;;;;;;;;;;5011802;28;20483;-86
2022/03/12 12:50:24;;;;;;;9.05;4.72;;;;;;;;;;4993656;28;20045;-86
2022/03/12 12:53:32;;;;;;;9.50;4.72;;;;;;;;;;5014864;28;20026;-84
2022/03/12 12:56:20;;;;;;;8.85;4.38;;;;;;;;;;4969883;28;20037;-84
2022/03/12 12:58:51;;;;;;;11.40;4.28;;;;;;;;;;5011130;28;20124;-88
2022/03/12 13:01:19;;;;;;;7.40;4.53;;;;;;;;;;5014739;28;20842;-87
2022/03/12 13:03:47;;;;;;;10.30;4.50;;;;;;;;;;5012749;28;20047;-86
2022/03/12 13:06:36;;;;;;;12.55;5.00;;;;;;;;;;5012181;28;20049;-89
2022/03/12 13:09:45;;;;;;;9.15;4.00;;;;;;;;;;5026822;28;20046;-88
2022/03/12 13:12:15;;;;;;;6.50;4.03;;;;;;;;;;5013836;28;20061;-86
2022/03/12 13:14:48;;;;;;;7.30;4.05;;;;;;;;;;4996254;28;20050;-86
2022/03/12 13:17:33;;;;;;;6.88;4.40;;;;;;;;;;4994704;28;20036;-86
2022/03/12 13:19:59;;;;;;;6.57;3.60;;;;;;;;;;5011933;28;20033;-86
2022/03/12 13:22:25;;;;;;;6.22;3.60;;;;;;;;;;4994942;28;20041;-84
2022/03/12 13:24:53;;;;;;;18.25;4.85;;;;;;;;;;4996086;28;20053;-87
2022/03/12 13:27:33;;;;;;;8.15;4.10;;;;;;;;;;5010274;28;20045;-85
2022/03/12 13:30:19;;;;;;;6.65;3.85;;;;;;;;;;5012732;28;20109;-86
2022/03/12 13:32:52;;;;;;;5.45;3.33;;;;;;;;;;4992987;28;20037;-88
2022/03/12 13:35:28;;;;;;;6.97;3.88;;;;;;;;;;5010066;28;20038;-88
2022/03/12 13:37:54;;;;;;;6.18;3.70;;;;;;;;;;4996494;28;20097;-86
2022/03/12 13:40:21;;;;;;;7.15;3.35;;;;;;;;;;4992305;28;20129;-86
2022/03/12 13:42:52;;;;;;;8.80;3.50;;;;;;;;;;4995739;28;20038;-87
2022/03/12 13:45:19;;;;;;;5.97;3.50;;;;;;;;;;5012283;28;20108;-86
2022/03/12 13:47:56;;;;;;;6.05;3.13;;;;;;;;;;5011959;28;20041;-86
2022/03/12 13:50:23;;;;;;;5.47;2.78;;;;;;;;;;5010574;28;20504;-86
2022/03/12 13:52:57;;;;;;;5.63;3.40;;;;;;;;;;4990688;28;20049;-87
2022/03/12 13:55:27;;;;;;;5.13;2.85;;;;;;;;;;4995291;28;20300;-87
2022/03/12 13:58:00;;;;;;;19.45;4.40;;;;;;;;;;4993862;28;20033;-88
2022/03/12 14:00:26;;;;;;;7.43;3.30;;;;;;;;;;4992197;28;20045;-83
2022/03/12 14:02:56;;;;;;;5.57;3.08;;;;;;;;;;5011157;28;20030;-83
2022/03/12 14:05:33;;;;;;;7.47;3.60;;;;;;;;;;4979195;28;20045;-86
2022/03/12 14:07:59;;;;;;;7.45;2.97;;;;;;;;;;4994408;28;20128;-80
2022/03/12 14:10:27;;;;;;;5.90;3.20;;;;;;;;;;4988997;28;20041;-80
2022/03/12 14:12:59;;;;;;;9.50;3.40;;;;;;;;;;4988149;28;20797;-85
2022/03/12 14:15:29;;;;;;;8.23;3.88;;;;;;;;;;4989984;28;20040;-87
2022/03/12 14:18:01;;;;;;;6.15;3.35;;;;;;;;;;5000015;28;20034;-88
2022/03/12 14:20:27;;;;;;;5.70;3.40;;;;;;;;;;5011284;28;20578;-85
2022/03/12 14:22:56;;;;;;;7.25;3.25;;;;;;;;;;4995743;28;20026;-85
2022/03/12 14:25:27;;;;;;;5.88;3.42;;;;;;;;;;5009396;28;20041;-83
2022/03/12 14:27:52;;;;;;;5.93;3.60;;;;;;;;;;4992428;28;20048;-84
2022/03/12 14:30:20;;;;;;;6.82;3.38;;;;;;;;;;5002617;28;20049;-84
2022/03/12 14:32:46;;;;;;;6.32;3.60;;;;;;;;;;4994003;28;20041;-83